createdAt,value
2022-10-26T00:01:10.991Z,3.53
2022-10-26T00:03:39.829Z,15.23
2022-10-26T00:06:21.867Z,7.30
2022-10-26T00:08:49.497Z,11.13
2022-10-26T00:11:17.222Z,4.73
2022-10-26T00:13:44.587Z,4.40
2022-10-26T00:16:18.721Z,5.97
2022-10-26T00:18:45.878Z,4.87
2022-10-26T00:21:13.068Z,4.20
2022-10-26T00:23:40.508Z,4.23
2022-10-26T00:26:08.180Z,6.53
2022-10-26T00:28:35.095Z,5.40
2022-10-26T00:31:12.964Z,6.63
2022-10-26T00:33:39.958Z,4.37
2022-10-26T00:36:09.380Z,4.93
2022-10-26T00:38:36.712Z,6.13
2022-10-26T00:41:03.813Z,4.60
2022-10-26T00:43:30.603Z,7.53
2022-10-26T00:45:59.678Z,6.90
2022-10-26T00:48:29.814Z,3.50
2022-10-26T00:50:59.736Z,5.10
2022-10-26T00:53:27.240Z,4.40
2022-10-26T00:55:55.206Z,7.00
2022-10-26T00:58:23.102Z,6.63
2022-10-26T01:00:51.090Z,3.30
2022-10-26T01:03:18.647Z,4.43
2022-10-26T01:05:47.762Z,6.10
2022-10-26T01:08:17.331Z,3.67
2022-10-26T01:10:44.450Z,3.73
2022-10-26T01:13:13.251Z,5.60
2022-10-26T01:16:15.789Z,3.90
2022-10-26T01:19:09.193Z,6.07
2022-10-26T01:22:12.806Z,5.70
2022-10-26T01:25:01.321Z,4.57
2022-10-26T01:27:51.119Z,4.20
2022-10-26T01:30:38.618Z,6.20
2022-10-26T01:33:11.825Z,8.90
2022-10-26T01:36:06.737Z,5.60
2022-10-26T01:38:40.895Z,4.57
2022-10-26T01:41:14.004Z,3.17
2022-10-26T01:43:49.104Z,3.40
2022-10-26T01:48:46.987Z,3.20
2022-10-26T01:51:15.338Z,8.50
2022-10-26T01:53:46.718Z,4.20
2022-10-26T01:56:27.372Z,3.97
2022-10-26T01:58:58.711Z,4.27
2022-10-26T02:01:52.212Z,7.03
2022-10-26T02:04:30.690Z,4.33
2022-10-26T02:07:19.685Z,3.20
2022-10-26T02:10:10.953Z,4.90
2022-10-26T02:12:55.577Z,4.67
2022-10-26T02:15:35.526Z,4.37
2022-10-26T02:18:11.641Z,2.67
2022-10-26T02:20:44.267Z,3.40
2022-10-26T02:23:12.500Z,4.10
2022-10-26T02:25:54.199Z,4.77
2022-10-26T02:28:27.440Z,6.00
2022-10-26T02:30:57.325Z,6.17
2022-10-26T02:33:26.610Z,3.50
2022-10-26T02:35:55.577Z,3.17
2022-10-26T02:38:24.033Z,2.83
2022-10-26T02:40:52.398Z,3.93
2022-10-26T02:43:22.310Z,5.80
2022-10-26T02:46:01.402Z,3.07
2022-10-26T02:48:28.443Z,3.90
2022-10-26T02:51:21.506Z,3.40
2022-10-26T02:54:16.840Z,5.57
2022-10-26T02:56:54.085Z,5.43
2022-10-26T02:59:24.722Z,4.70
2022-10-26T03:01:53.294Z,6.20
2022-10-26T03:04:20.632Z,3.57
2022-10-26T03:06:56.692Z,5.03
2022-10-26T03:09:25.515Z,3.27
2022-10-26T03:11:52.781Z,3.63
2022-10-26T03:14:20.044Z,3.90
2022-10-26T03:16:47.045Z,4.57
2022-10-26T03:19:14.027Z,3.97
2022-10-26T03:21:42.354Z,3.23
2022-10-26T03:24:10.098Z,3.53
2022-10-26T03:26:37.463Z,4.70
2022-10-26T03:29:04.614Z,2.67
2022-10-26T03:31:31.467Z,5.83
2022-10-26T03:33:58.395Z,10.00
2022-10-26T03:36:25.235Z,3.67
2022-10-26T03:38:52.079Z,2.80
2022-10-26T03:41:19.007Z,11.77
2022-10-26T03:43:45.835Z,4.17
2022-10-26T03:46:12.633Z,4.33
2022-10-26T03:48:39.505Z,5.03
2022-10-26T03:51:06.379Z,3.43
2022-10-26T03:53:33.330Z,5.23
2022-10-26T03:56:00.126Z,4.63
2022-10-26T03:58:27.023Z,3.33
2022-10-26T04:00:53.857Z,3.43
2022-10-26T04:03:20.659Z,3.67
2022-10-26T04:05:47.504Z,3.27
2022-10-26T04:08:14.528Z,6.43
2022-10-26T04:10:41.395Z,3.27
2022-10-26T04:13:10.602Z,6.03
2022-10-26T04:15:37.557Z,5.50
2022-10-26T04:18:04.425Z,3.90
2022-10-26T04:20:33.290Z,7.33
2022-10-26T04:23:05.194Z,4.20
2022-10-26T04:25:33.732Z,4.33
2022-10-26T04:28:02.312Z,3.30
2022-10-26T04:30:29.803Z,6.13
2022-10-26T04:32:56.869Z,5.27
2022-10-26T04:35:24.093Z,2.60
2022-10-26T04:37:50.988Z,6.73
2022-10-26T04:40:18.336Z,3.77
2022-10-26T04:42:47.137Z,3.13
2022-10-26T04:45:16.236Z,4.27
2022-10-26T04:47:43.484Z,6.83
2022-10-26T04:50:12.191Z,6.40
2022-10-26T04:52:39.150Z,5.23
2022-10-26T04:55:07.128Z,5.43
2022-10-26T04:57:35.702Z,6.20
2022-10-26T05:00:04.527Z,4.53
2022-10-26T05:02:31.383Z,4.83
2022-10-26T05:04:58.319Z,4.47
2022-10-26T05:07:25.226Z,4.50
2022-10-26T05:09:52.081Z,4.57
2022-10-26T05:12:19.014Z,5.97
2022-10-26T05:14:45.879Z,3.40
2022-10-26T05:17:12.697Z,13.17
2022-10-26T05:19:39.602Z,5.03
2022-10-26T05:22:06.501Z,5.13
2022-10-26T05:24:33.286Z,8.47
2022-10-26T05:27:00.531Z,6.97
2022-10-26T05:29:27.369Z,13.40
2022-10-26T05:31:54.254Z,8.60
2022-10-26T05:34:21.093Z,3.90
2022-10-26T05:36:47.955Z,4.47
2022-10-26T05:39:14.755Z,5.23
2022-10-26T05:41:41.599Z,4.83
2022-10-26T05:44:08.377Z,6.40
2022-10-26T05:46:35.187Z,9.17
2022-10-26T05:49:02.000Z,9.97
2022-10-26T05:51:28.831Z,6.53
2022-10-26T05:53:55.659Z,7.90
2022-10-26T05:56:41.774Z,6.33
2022-10-26T05:59:16.286Z,6.40
2022-10-26T06:02:21.963Z,5.50
2022-10-26T06:04:49.211Z,7.80
2022-10-26T06:07:18.397Z,5.73
2022-10-26T06:09:46.062Z,5.53
2022-10-26T06:12:16.803Z,6.80
2022-10-26T06:14:46.421Z,6.43
2022-10-26T06:17:53.868Z,6.10
2022-10-26T06:20:33.595Z,11.63
2022-10-26T06:23:18.566Z,9.47
2022-10-26T06:26:06.263Z,8.43
2022-10-26T06:28:51.340Z,7.10
2022-10-26T06:31:18.349Z,6.87
2022-10-26T06:33:45.517Z,7.27
2022-10-26T06:36:21.204Z,8.73
2022-10-26T06:38:51.175Z,12.60
2022-10-26T06:41:20.132Z,6.70
2022-10-26T06:43:47.346Z,7.17
2022-10-26T06:46:41.440Z,6.57
2022-10-26T06:49:28.032Z,7.70
2022-10-26T06:52:01.746Z,6.20
2022-10-26T06:54:46.747Z,6.77
2022-10-26T06:57:15.795Z,10.70
2022-10-26T06:59:57.174Z,7.70
2022-10-26T07:02:24.351Z,10.87
2022-10-26T07:04:51.577Z,6.70
2022-10-26T07:07:23.904Z,6.37
2022-10-26T07:09:51.546Z,10.07
2022-10-26T07:12:18.405Z,8.50
2022-10-26T07:14:45.526Z,8.30
2022-10-26T07:17:12.697Z,11.20
2022-10-26T07:19:40.809Z,6.80
2022-10-26T07:22:07.701Z,5.83
2022-10-26T07:24:40.774Z,9.90
2022-10-26T07:27:07.718Z,13.30
2022-10-26T07:29:40.936Z,8.23
2022-10-26T07:32:08.652Z,14.87
2022-10-26T07:34:35.658Z,14.70
2022-10-26T07:37:02.551Z,9.30
2022-10-26T07:39:32.820Z,5.23
2022-10-26T07:41:59.979Z,5.60
2022-10-26T07:44:26.846Z,6.17
2022-10-26T07:46:53.708Z,5.90
2022-10-26T07:49:21.353Z,8.13
2022-10-26T07:51:49.830Z,6.60
2022-10-26T07:54:16.737Z,4.87
2022-10-26T07:56:43.568Z,3.63
2022-10-26T07:59:13.288Z,7.23
2022-10-26T08:01:40.283Z,15.17
2022-10-26T08:04:07.164Z,3.40
2022-10-26T08:06:34.088Z,6.20
2022-10-26T08:09:01.174Z,2.23
2022-10-26T08:11:28.161Z,5.37
2022-10-26T08:13:56.126Z,8.53
2022-10-26T08:16:23.594Z,7.00
2022-10-26T08:18:53.575Z,5.73
2022-10-26T08:21:22.143Z,4.40
2022-10-26T08:24:02.550Z,4.43
2022-10-26T08:26:29.396Z,3.07
2022-10-26T08:28:56.360Z,2.00
2022-10-26T08:31:23.300Z,2.83
2022-10-26T08:33:50.546Z,5.63
2022-10-26T08:36:28.011Z,2.90
2022-10-26T08:38:55.090Z,6.13
2022-10-26T08:41:45.675Z,3.20
2022-10-26T08:44:35.318Z,2.77
2022-10-26T08:47:21.412Z,4.80
2022-10-26T08:49:59.463Z,2.40
2022-10-26T08:52:37.140Z,6.00
2022-10-26T08:55:09.250Z,3.73
2022-10-26T08:57:42.025Z,2.37
2022-10-26T09:00:21.660Z,4.70
2022-10-26T09:02:52.821Z,2.90
2022-10-26T09:05:32.298Z,5.50
2022-10-26T09:08:23.417Z,3.10
2022-10-26T09:11:09.185Z,2.00
2022-10-26T09:13:45.091Z,3.60
2022-10-26T09:16:22.591Z,2.07
2022-10-26T09:19:23.779Z,6.30
2022-10-26T09:22:00.747Z,4.03
2022-10-26T09:24:42.643Z,2.43
2022-10-26T09:27:30.164Z,2.50
2022-10-26T09:30:12.871Z,2.13
2022-10-26T09:32:44.757Z,3.20
2022-10-26T09:35:25.797Z,1.97
2022-10-26T09:38:09.745Z,6.37
2022-10-26T09:40:49.597Z,2.07
2022-10-26T09:43:26.798Z,2.60
2022-10-26T09:45:54.174Z,2.40
2022-10-26T09:48:38.171Z,3.33
2022-10-26T09:51:05.278Z,3.90
2022-10-26T09:53:32.835Z,3.30
2022-10-26T09:56:15.188Z,2.70
2022-10-26T09:58:48.538Z,10.13
2022-10-26T10:01:38.620Z,2.63
2022-10-26T10:04:18.075Z,5.20
2022-10-26T10:06:46.455Z,4.90
2022-10-26T10:09:21.162Z,2.77
2022-10-26T10:11:56.809Z,8.30
2022-10-26T10:14:25.261Z,3.20
2022-10-26T10:16:56.797Z,9.97
2022-10-26T10:19:30.924Z,4.27
2022-10-26T10:22:00.807Z,2.90
2022-10-26T10:24:32.758Z,4.20
2022-10-26T10:27:17.724Z,4.10
2022-10-26T10:29:50.566Z,3.57
2022-10-26T10:32:20.941Z,5.53
2022-10-26T10:34:52.915Z,6.90
2022-10-26T10:37:41.741Z,3.67
2022-10-26T10:40:21.546Z,7.03
2022-10-26T10:42:55.746Z,5.70
2022-10-26T10:45:34.787Z,9.10
2022-10-26T10:48:13.077Z,3.50
2022-10-26T10:51:02.895Z,3.20
2022-10-26T10:53:50.063Z,4.93
2022-10-26T10:56:36.689Z,5.90
2022-10-26T10:59:37.517Z,4.10
2022-10-26T11:02:26.393Z,4.03
2022-10-26T11:05:20.943Z,5.10
2022-10-26T11:08:04.340Z,4.57
2022-10-26T11:10:39.481Z,5.43
2022-10-26T11:13:25.844Z,6.93
2022-10-26T11:16:00.540Z,6.23
2022-10-26T11:18:51.838Z,9.73
2022-10-26T11:21:29.505Z,4.03
2022-10-26T11:24:19.785Z,3.60
2022-10-26T11:27:02.344Z,8.60
2022-10-26T11:29:41.638Z,10.90
2022-10-26T11:32:51.395Z,6.00
2022-10-26T11:35:27.959Z,5.63
2022-10-26T11:38:45.493Z,10.73
2022-10-26T11:41:47.822Z,10.80
2022-10-26T11:44:30.661Z,5.17
2022-10-26T11:47:03.980Z,8.60
2022-10-26T11:49:43.609Z,5.73
2022-10-26T11:52:17.902Z,6.67
2022-10-26T11:54:54.595Z,12.90
2022-10-26T11:57:26.288Z,9.07
2022-10-26T11:59:57.359Z,9.50
2022-10-26T12:02:25.880Z,13.30
2022-10-26T12:05:16.511Z,6.00
2022-10-26T12:08:04.392Z,10.93
2022-10-26T12:10:34.506Z,12.50
2022-10-26T12:13:22.664Z,4.67
2022-10-26T12:16:15.267Z,9.93
2022-10-26T12:18:56.824Z,7.20
2022-10-26T12:21:32.024Z,15.00
2022-10-26T12:24:05.571Z,10.33
2022-10-26T12:26:53.715Z,7.40
2022-10-26T12:29:29.436Z,9.17
2022-10-26T12:31:59.401Z,6.27
2022-10-26T12:34:33.130Z,13.60
2022-10-26T12:36:59.963Z,7.23
2022-10-26T12:39:39.158Z,10.50
2022-10-26T12:42:06.123Z,18.37
2022-10-26T12:44:51.085Z,6.63
2022-10-26T12:47:36.937Z,6.57
2022-10-26T12:50:17.131Z,10.97
2022-10-26T12:53:09.405Z,9.10
2022-10-26T12:55:54.626Z,13.70
2022-10-26T12:58:27.189Z,6.50
2022-10-26T13:01:00.514Z,13.33
2022-10-26T13:03:46.903Z,8.20
2022-10-26T13:06:38.686Z,7.17
2022-10-26T13:09:31.031Z,6.73
2022-10-26T13:11:58.971Z,6.37
2022-10-26T13:14:41.289Z,14.33
2022-10-26T13:17:27.025Z,4.40
2022-10-26T13:20:06.250Z,6.40
2022-10-26T13:22:33.486Z,8.00
2022-10-26T13:25:06.160Z,9.77
2022-10-26T13:27:33.047Z,9.50
2022-10-26T13:30:20.893Z,10.63
2022-10-26T13:32:55.621Z,7.53
2022-10-26T13:35:25.000Z,10.87
2022-10-26T13:37:54.885Z,10.03
2022-10-26T13:40:28.617Z,8.83
2022-10-26T13:42:58.315Z,7.10
2022-10-26T13:45:56.140Z,13.70
2022-10-26T13:48:39.915Z,10.60
2022-10-26T13:51:21.155Z,14.83
2022-10-26T13:54:02.020Z,6.57
2022-10-26T13:56:33.675Z,5.50
2022-10-26T13:59:10.376Z,8.03
2022-10-26T14:01:37.604Z,10.00
2022-10-26T14:04:27.615Z,9.03
2022-10-26T14:06:55.215Z,12.70
2022-10-26T14:09:22.983Z,7.23
2022-10-26T14:11:58.241Z,10.17
2022-10-26T14:14:29.721Z,7.67
2022-10-26T14:16:57.573Z,14.77
2022-10-26T14:19:26.374Z,9.20
2022-10-26T14:21:54.085Z,10.13
2022-10-26T14:24:45.728Z,11.03
2022-10-26T14:27:22.041Z,7.93
2022-10-26T14:30:16.888Z,6.80
2022-10-26T14:32:37.959Z,9.63
2022-10-26T14:35:05.206Z,9.23
2022-10-26T14:37:46.181Z,11.93
2022-10-26T14:40:18.821Z,8.03
2022-10-26T14:42:52.274Z,5.47
2022-10-26T14:45:30.004Z,17.13
2022-10-26T14:48:30.606Z,9.60
2022-10-26T14:51:19.453Z,7.43
2022-10-26T14:53:51.851Z,9.70
2022-10-26T14:56:24.079Z,13.70
2022-10-26T14:58:51.761Z,12.80
2022-10-26T15:01:25.250Z,8.67
2022-10-26T15:04:06.899Z,9.87
2022-10-26T15:06:39.877Z,6.40
2022-10-26T15:09:27.257Z,13.53
2022-10-26T15:11:54.290Z,8.23
2022-10-26T15:14:21.362Z,7.83
2022-10-26T15:16:54.966Z,6.83
2022-10-26T15:19:24.098Z,5.90
2022-10-26T15:21:52.631Z,9.73
2022-10-26T15:24:39.357Z,7.87
2022-10-26T15:27:15.914Z,8.90
2022-10-26T15:29:46.333Z,9.07
2022-10-26T15:32:27.749Z,6.67
2022-10-26T15:35:14.181Z,9.50
2022-10-26T15:37:41.634Z,7.73
2022-10-26T15:40:09.048Z,13.30
2022-10-26T15:42:40.566Z,9.63
2022-10-26T15:45:33.208Z,12.47
2022-10-26T15:48:16.894Z,9.70
2022-10-26T15:50:43.862Z,7.50
2022-10-26T15:53:18.346Z,11.17
2022-10-26T15:55:45.472Z,11.27
2022-10-26T15:58:12.654Z,7.10
2022-10-26T16:00:39.672Z,7.53
2022-10-26T16:03:10.107Z,6.70
2022-10-26T16:05:37.178Z,17.30
2022-10-26T16:08:04.350Z,8.53
2022-10-26T16:10:31.371Z,12.97
2022-10-26T16:12:59.359Z,9.37
2022-10-26T16:15:26.358Z,7.47
2022-10-26T16:17:53.796Z,11.07
2022-10-26T16:20:23.600Z,7.07
2022-10-26T16:22:52.678Z,7.90
2022-10-26T16:25:25.605Z,7.57
2022-10-26T16:27:54.470Z,8.30
2022-10-26T16:30:24.731Z,10.00
2022-10-26T16:32:54.096Z,14.50
2022-10-26T16:35:20.966Z,13.20
2022-10-26T16:37:47.957Z,8.83
2022-10-26T16:40:14.930Z,8.77
2022-10-26T16:42:44.109Z,14.93
2022-10-26T16:45:15.066Z,8.33
2022-10-26T16:47:42.077Z,14.63
2022-10-26T16:50:13.092Z,9.00
2022-10-26T16:52:40.365Z,9.40
2022-10-26T16:55:08.693Z,11.60
2022-10-26T16:57:36.747Z,16.57
2022-10-26T17:00:06.059Z,12.50
2022-10-26T17:02:33.096Z,6.50
2022-10-26T17:05:02.799Z,16.87
2022-10-26T17:07:32.961Z,7.17
2022-10-26T17:09:59.938Z,8.87
2022-10-26T17:14:53.840Z,11.30
2022-10-26T17:17:20.705Z,12.57
2022-10-26T17:19:47.582Z,17.80
2022-10-26T17:22:14.481Z,15.70
2022-10-26T17:24:41.436Z,9.83
2022-10-26T17:27:08.263Z,10.67
2022-10-26T17:29:35.089Z,10.80
2022-10-26T17:32:02.064Z,13.37
2022-10-26T17:34:28.880Z,9.07
2022-10-26T17:36:55.922Z,9.37
2022-10-26T17:39:22.745Z,11.03
2022-10-26T17:41:49.633Z,12.53
2022-10-26T17:44:16.487Z,16.53
2022-10-26T17:46:43.412Z,15.80
2022-10-26T17:49:10.247Z,14.67
2022-10-26T17:51:37.063Z,11.73
2022-10-26T17:54:03.975Z,13.87
2022-10-26T17:56:33.434Z,21.80
2022-10-26T17:59:02.363Z,14.13
2022-10-26T18:01:29.641Z,11.07
2022-10-26T18:03:56.568Z,10.37
2022-10-26T18:06:24.247Z,12.97
2022-10-26T18:08:51.104Z,18.20
2022-10-26T18:11:25.331Z,15.07
2022-10-26T18:13:57.346Z,20.57
2022-10-26T18:16:25.629Z,14.10
2022-10-26T18:19:04.494Z,14.27
2022-10-26T18:21:33.713Z,10.03
2022-10-26T18:24:00.641Z,10.27
2022-10-26T18:26:29.112Z,16.13
2022-10-26T18:29:01.142Z,12.63
2022-10-26T18:31:29.329Z,10.40
2022-10-26T18:33:58.029Z,11.10
2022-10-26T18:36:25.775Z,14.30
2022-10-26T18:38:53.268Z,7.67
2022-10-26T18:41:21.428Z,12.20
2022-10-26T18:46:33.943Z,13.27
2022-10-26T18:49:01.224Z,10.00
2022-10-26T18:51:34.102Z,12.50
2022-10-26T18:54:01.359Z,14.57
2022-10-26T18:56:32.125Z,16.37
2022-10-26T18:59:00.397Z,11.70
2022-10-26T19:01:33.351Z,13.23
2022-10-26T19:04:08.283Z,16.07
2022-10-26T19:06:38.648Z,13.33
2022-10-26T19:09:07.473Z,15.47
2022-10-26T19:11:34.551Z,13.27
2022-10-26T19:14:01.421Z,12.17
2022-10-26T19:16:45.472Z,15.77
2022-10-26T19:19:14.551Z,15.30
2022-10-26T19:21:41.517Z,12.57
2022-10-26T19:24:17.122Z,18.93
2022-10-26T19:26:44.396Z,23.10
2022-10-26T19:29:15.212Z,12.93
2022-10-26T19:31:43.971Z,12.37
2022-10-26T19:34:12.230Z,21.53
2022-10-26T19:36:39.734Z,15.20
2022-10-26T19:39:07.555Z,23.10
2022-10-26T19:41:34.391Z,11.00
2022-10-26T19:44:01.294Z,15.87
2022-10-26T19:46:29.766Z,14.43
2022-10-26T19:48:58.941Z,16.67
2022-10-26T19:51:27.340Z,16.40
2022-10-26T19:53:57.843Z,22.43
2022-10-26T19:56:27.425Z,10.40
2022-10-26T19:58:55.782Z,13.50
2022-10-26T20:01:23.290Z,13.80
2022-10-26T20:03:51.019Z,12.57
2022-10-26T20:06:18.458Z,14.70
2022-10-26T20:08:47.505Z,13.37
2022-10-26T20:11:16.753Z,20.30
2022-10-26T20:13:44.977Z,15.80
2022-10-26T20:16:12.490Z,16.30
2022-10-26T20:18:43.999Z,12.90
2022-10-26T20:21:14.873Z,16.10
2022-10-26T20:23:42.659Z,10.10
2022-10-26T20:26:11.080Z,12.17
2022-10-26T20:28:39.727Z,14.10
2022-10-26T20:31:06.597Z,17.83
2022-10-26T20:33:33.459Z,18.40
2022-10-26T20:36:00.814Z,20.83
2022-10-26T20:38:27.994Z,18.20
2022-10-26T20:40:59.515Z,16.27
2022-10-26T20:43:27.705Z,15.00
2022-10-26T20:45:56.186Z,19.97
2022-10-26T20:48:23.373Z,20.97
2022-10-26T20:50:58.571Z,17.70
2022-10-26T20:53:32.226Z,21.83
2022-10-26T20:56:02.359Z,20.23
2022-10-26T20:58:47.250Z,14.23
2022-10-26T21:01:28.759Z,15.03
2022-10-26T21:03:57.776Z,20.00
2022-10-26T21:06:25.630Z,15.03
2022-10-26T21:08:54.215Z,26.07
2022-10-26T21:11:22.357Z,20.63
2022-10-26T21:13:53.268Z,15.73
2022-10-26T21:18:52.237Z,16.70
2022-10-26T21:21:19.220Z,20.03
2022-10-26T21:23:46.089Z,12.40
2022-10-26T21:26:13.235Z,24.93
2022-10-26T21:28:42.604Z,13.47
2022-10-26T21:31:11.448Z,13.50
2022-10-26T21:33:38.769Z,15.30
2022-10-26T21:36:09.842Z,18.90
2022-10-26T21:38:36.925Z,14.57
2022-10-26T21:41:04.914Z,16.70
2022-10-26T21:43:32.706Z,12.60
2022-10-26T21:46:03.404Z,21.00
2022-10-26T21:48:32.119Z,14.53
2022-10-26T21:51:00.928Z,13.00
2022-10-26T21:53:27.871Z,16.30
2022-10-26T21:56:21.893Z,18.97
2022-10-26T21:58:49.060Z,12.57
2022-10-26T22:01:18.645Z,13.97
2022-10-26T22:03:46.102Z,12.63
2022-10-26T22:06:15.442Z,12.47
2022-10-26T22:08:43.381Z,10.80
2022-10-26T22:11:22.055Z,12.03
2022-10-26T22:13:50.295Z,15.00
2022-10-26T22:16:23.278Z,13.57
2022-10-26T22:18:51.923Z,13.67
2022-10-26T22:21:20.446Z,12.50
2022-10-26T22:23:47.940Z,14.37
2022-10-26T22:26:17.590Z,14.33
2022-10-26T22:28:45.836Z,15.93
2022-10-26T22:31:15.755Z,12.73
2022-10-26T22:33:43.391Z,12.90
2022-10-26T22:36:13.019Z,14.33
2022-10-26T22:38:40.721Z,15.33
2022-10-26T22:41:08.092Z,26.97
2022-10-26T22:43:35.066Z,10.37
2022-10-26T22:46:18.248Z,10.83
2022-10-26T22:48:45.619Z,13.30
2022-10-26T22:51:15.139Z,11.30
2022-10-26T22:53:42.491Z,11.83
2022-10-26T22:56:11.348Z,17.03
2022-10-26T22:58:38.906Z,11.90
2022-10-26T23:01:08.238Z,17.13
2022-10-26T23:03:35.702Z,10.87
2022-10-26T23:06:03.522Z,10.57
2022-10-26T23:08:30.451Z,11.63
2022-10-26T23:11:01.798Z,19.33
2022-10-26T23:13:29.335Z,12.07
2022-10-26T23:15:56.922Z,11.67
2022-10-26T23:18:23.821Z,20.50
2022-10-26T23:20:51.674Z,9.60
2022-10-26T23:23:18.983Z,9.93
2022-10-26T23:25:45.982Z,13.23
2022-10-26T23:28:12.874Z,11.10
2022-10-26T23:30:39.669Z,12.43
2022-10-26T23:33:06.568Z,11.10
2022-10-26T23:35:33.402Z,10.73
2022-10-26T23:38:00.572Z,13.10
2022-10-26T23:40:27.712Z,8.73
2022-10-26T23:42:54.577Z,11.80
2022-10-26T23:45:22.094Z,8.90
2022-10-26T23:47:49.414Z,8.87
2022-10-26T23:50:16.494Z,15.63
2022-10-26T23:52:49.323Z,10.87
2022-10-26T23:55:16.862Z,13.30
2022-10-26T23:57:43.684Z,12.30
